Time;durP1;ratioP1;P1;durP2;ratioP2;P2;SDS_P1;SDS_P2;PMS_P1;PMS_P2;Temp;Humidity;BMP_temperature;BMP_pressure;BME280_temperature;BME280_humidity;BME280_pressure;Samples;Min_cycle;Max_cycle;Signal;HPM_P1;HPM_P2
2022/02/20 00:02:36;;;;;;;6.50;2.00;;;;;;;;;;6168437;23;20543;-87
2022/02/20 00:05:40;;;;;;;9.10;2.10;;;;;;;;;;6168271;23;21101;-88
2022/02/20 00:08:44;;;;;;;4.60;1.70;;;;;;;;;;6169621;23;20611;-88
2022/02/20 00:11:48;;;;;;;4.97;1.70;;;;;;;;;;6178313;23;20500;-87
2022/02/20 00:14:52;;;;;;;3.33;1.90;;;;;;;;;;6167686;23;20560;-87
2022/02/20 00:17:58;;;;;;;10.63;2.10;;;;;;;;;;6173203;23;20568;-88
2022/02/20 00:21:02;;;;;;;7.10;1.70;;;;;;;;;;6177953;23;20504;-87
2022/02/20 00:24:06;;;;;;;6.10;1.53;;;;;;;;;;6151056;23;20556;-87
2022/02/20 00:27:10;;;;;;;6.77;1.30;;;;;;;;;;6151438;23;20608;-87
2022/02/20 00:30:15;;;;;;;6.43;1.80;;;;;;;;;;6151139;23;21104;-87
2022/02/20 00:33:19;;;;;;;4.50;1.53;;;;;;;;;;6167841;23;20556;-88
2022/02/20 00:36:23;;;;;;;4.10;1.40;;;;;;;;;;6168286;23;20556;-87
2022/02/20 00:39:31;;;;;;;4.40;1.60;;;;;;;;;;6170029;23;20552;-88
2022/02/20 00:42:37;;;;;;;4.47;1.30;;;;;;;;;;6169774;23;20551;-88
2022/02/20 00:45:42;;;;;;;8.20;1.40;;;;;;;;;;6180229;23;20500;-88
2022/02/20 00:48:46;;;;;;;3.37;1.00;;;;;;;;;;6188505;23;20612;-88
2022/02/20 00:51:51;;;;;;;2.87;1.30;;;;;;;;;;6180048;23;20504;-88
2022/02/20 00:54:55;;;;;;;6.07;1.53;;;;;;;;;;6163235;23;20522;-88
2022/02/20 00:57:59;;;;;;;5.00;1.83;;;;;;;;;;6153095;23;20583;-87
2022/02/20 01:01:04;;;;;;;4.77;1.30;;;;;;;;;;6169991;23;20551;-87
2022/02/20 01:04:08;;;;;;;2.73;1.30;;;;;;;;;;6179771;23;20504;-87
2022/02/20 01:07:12;;;;;;;5.93;1.40;;;;;;;;;;6169896;23;20583;-87
2022/02/20 01:10:18;;;;;;;5.50;1.20;;;;;;;;;;6163701;23;21029;-86
2022/02/20 01:13:21;;;;;;;4.13;1.10;;;;;;;;;;6180113;23;20500;-86
2022/02/20 01:16:25;;;;;;;2.73;1.10;;;;;;;;;;6180184;23;20504;-86
2022/02/20 01:19:30;;;;;;;3.53;1.10;;;;;;;;;;6179978;23;20493;-86
2022/02/20 01:22:34;;;;;;;10.53;1.40;;;;;;;;;;6180378;23;20504;-86
2022/02/20 01:25:38;;;;;;;8.63;1.07;;;;;;;;;;6163429;23;20500;-86
2022/02/20 01:28:42;;;;;;;3.50;1.03;;;;;;;;;;6171803;23;20919;-86
2022/02/20 01:31:46;;;;;;;4.53;0.90;;;;;;;;;;6163184;23;20504;-86
2022/02/20 01:34:51;;;;;;;6.03;1.00;;;;;;;;;;6197585;23;20501;-85
2022/02/20 01:37:55;;;;;;;8.43;1.47;;;;;;;;;;6175173;23;20918;-86
2022/02/20 01:41:02;;;;;;;6.37;1.30;;;;;;;;;;6163551;23;20505;-86
2022/02/20 01:44:07;;;;;;;2.60;1.00;;;;;;;;;;6163139;23;20500;-87
2022/02/20 01:47:15;;;;;;;2.30;0.90;;;;;;;;;;6154152;23;20588;-85
2022/02/20 01:50:20;;;;;;;1.20;0.70;;;;;;;;;;6170771;23;20548;-86
2022/02/20 01:53:26;;;;;;;1.77;1.00;;;;;;;;;;6188000;23;20547;-86
2022/02/20 01:56:33;;;;;;;5.43;1.37;;;;;;;;;;6187813;23;20556;-86
2022/02/20 02:00:00;;;;;;;2.93;1.27;;;;;;;;;;6184526;23;20500;-86
2022/02/20 02:03:27;;;;;;;4.57;1.27;;;;;;;;;;6168092;23;20504;-86
2022/02/20 02:06:42;;;;;;;5.83;1.37;;;;;;;;;;6180491;23;20501;-87
2022/02/20 02:09:49;;;;;;;6.70;1.20;;;;;;;;;;6154265;23;20553;-86
2022/02/20 02:13:22;;;;;;;2.57;1.00;;;;;;;;;;6120484;23;20571;-86
2022/02/20 02:16:37;;;;;;;4.73;1.10;;;;;;;;;;6165641;23;20500;-85
2022/02/20 02:20:07;;;;;;;2.00;0.90;;;;;;;;;;6168185;23;20501;-85
2022/02/20 02:23:29;;;;;;;4.20;1.20;;;;;;;;;;6166817;23;20501;-85
2022/02/20 02:26:47;;;;;;;6.10;1.30;;;;;;;;;;6182470;23;20812;-86
2022/02/20 02:30:09;;;;;;;3.53;1.20;;;;;;;;;;6173432;23;21097;-86
2022/02/20 02:33:31;;;;;;;4.17;1.27;;;;;;;;;;6163109;23;21017;-86
2022/02/20 02:36:35;;;;;;;2.47;1.10;;;;;;;;;;6163056;23;20505;-86
2022/02/20 02:39:40;;;;;;;4.50;1.47;;;;;;;;;;6186237;23;20544;-85
2022/02/20 02:42:45;;;;;;;2.80;1.10;;;;;;;;;;6169448;23;20544;-86
2022/02/20 02:45:49;;;;;;;2.33;1.00;;;;;;;;;;6169900;23;20548;-86
2022/02/20 02:48:53;;;;;;;3.33;1.07;;;;;;;;;;6170402;23;20612;-86
2022/02/20 02:51:58;;;;;;;4.90;1.03;;;;;;;;;;6179660;23;20811;-86
2022/02/20 02:55:04;;;;;;;5.03;1.30;;;;;;;;;;6196442;23;20505;-86
2022/02/20 02:58:09;;;;;;;3.83;1.03;;;;;;;;;;6156388;23;20568;-86
2022/02/20 03:01:14;;;;;;;2.10;0.93;;;;;;;;;;6179067;23;20509;-86
2022/02/20 03:04:20;;;;;;;5.10;1.30;;;;;;;;;;6179377;23;20500;-86
2022/02/20 03:07:24;;;;;;;4.43;1.20;;;;;;;;;;6159404;23;20572;-86
2022/02/20 03:10:29;;;;;;;2.33;0.90;;;;;;;;;;6179458;23;20497;-86
2022/02/20 03:13:34;;;;;;;2.37;1.20;;;;;;;;;;6179423;23;20504;-86
2022/02/20 03:16:39;;;;;;;4.67;0.97;;;;;;;;;;6179220;23;20501;-86
2022/02/20 03:19:44;;;;;;;2.83;1.20;;;;;;;;;;6179389;23;20500;-86
2022/02/20 03:22:48;;;;;;;4.83;1.10;;;;;;;;;;6169279;23;20875;-86
2022/02/20 03:25:52;;;;;;;5.13;1.70;;;;;;;;;;6151836;23;20552;-86
2022/02/20 03:28:56;;;;;;;3.13;1.00;;;;;;;;;;6168496;23;20607;-86
2022/02/20 03:32:04;;;;;;;5.17;1.20;;;;;;;;;;6180113;23;20504;-86
2022/02/20 03:35:09;;;;;;;3.17;1.13;;;;;;;;;;6179213;23;20807;-86
2022/02/20 03:38:13;;;;;;;4.40;1.20;;;;;;;;;;6172489;23;20591;-86
2022/02/20 03:41:18;;;;;;;6.30;1.10;;;;;;;;;;6162016;23;21017;-86
2022/02/20 03:44:22;;;;;;;2.00;1.00;;;;;;;;;;6178821;23;20811;-86
2022/02/20 03:47:44;;;;;;;1.80;1.13;;;;;;;;;;6178710;23;20572;-86
2022/02/20 03:50:49;;;;;;;7.43;1.10;;;;;;;;;;6179489;23;20497;-86
2022/02/20 03:53:53;;;;;;;3.33;1.20;;;;;;;;;;6186341;23;20548;-86
2022/02/20 03:56:59;;;;;;;3.90;1.17;;;;;;;;;;6169519;23;20560;-85
2022/02/20 04:00:35;;;;;;;6.43;1.33;;;;;;;;;;6197385;23;21017;-86
2022/02/20 04:04:03;;;;;;;1.53;0.83;;;;;;;;;;6184249;23;20507;-85
2022/02/20 04:07:07;;;;;;;5.60;0.87;;;;;;;;;;6194455;23;20576;-85
2022/02/20 04:10:13;;;;;;;4.27;1.13;;;;;;;;;;6151613;23;20612;-86
2022/02/20 04:13:17;;;;;;;4.97;1.30;;;;;;;;;;6169295;23;20559;-86
2022/02/20 04:16:28;;;;;;;2.17;1.00;;;;;;;;;;6169927;23;20859;-86
2022/02/20 04:19:32;;;;;;;2.37;0.93;;;;;;;;;;6169329;23;20544;-86
2022/02/20 04:22:39;;;;;;;2.60;1.07;;;;;;;;;;6179185;23;20505;-86
2022/02/20 04:25:43;;;;;;;2.17;1.20;;;;;;;;;;6178734;23;20505;-86
2022/02/20 04:28:47;;;;;;;3.23;1.13;;;;;;;;;;6168345;23;20607;-86
2022/02/20 04:31:52;;;;;;;5.77;1.30;;;;;;;;;;6168760;23;20555;-86
2022/02/20 04:34:57;;;;;;;3.57;0.90;;;;;;;;;;6179337;23;20501;-86
2022/02/20 04:38:01;;;;;;;4.23;0.80;;;;;;;;;;6172927;23;20611;-86
2022/02/20 04:41:07;;;;;;;3.67;1.37;;;;;;;;;;6178578;23;20501;-86
2022/02/20 04:44:13;;;;;;;1.47;0.93;;;;;;;;;;6168335;23;20551;-86
2022/02/20 04:47:17;;;;;;;1.90;0.87;;;;;;;;;;6168447;23;20579;-86
2022/02/20 04:50:21;;;;;;;1.93;0.90;;;;;;;;;;6162510;23;20556;-86
2022/02/20 04:53:34;;;;;;;2.60;1.33;;;;;;;;;;6153638;23;20556;-86
2022/02/20 04:56:38;;;;;;;5.63;1.00;;;;;;;;;;6178253;23;20504;-87
2022/02/20 04:59:42;;;;;;;1.70;0.80;;;;;;;;;;6178022;23;20496;-88
2022/02/20 05:02:46;;;;;;;2.70;0.77;;;;;;;;;;6178172;23;20504;-87
2022/02/20 05:05:50;;;;;;;2.60;1.20;;;;;;;;;;6177771;23;20501;-87
2022/02/20 05:09:02;;;;;;;2.30;0.97;;;;;;;;;;6152501;23;21156;-87
2022/02/20 05:12:19;;;;;;;5.93;0.90;;;;;;;;;;6163299;23;20153;-87
2022/02/20 05:15:24;;;;;;;1.37;0.70;;;;;;;;;;6177941;23;20153;-88
2022/02/20 05:18:32;;;;;;;2.47;0.90;;;;;;;;;;6187585;23;20197;-87
2022/02/20 05:21:37;;;;;;;1.77;0.90;;;;;;;;;;6178597;23;20157;-87
2022/02/20 05:24:41;;;;;;;4.07;1.27;;;;;;;;;;6179702;23;20157;-88
2022/02/20 05:27:45;;;;;;;5.37;1.20;;;;;;;;;;6175317;23;20192;-88
2022/02/20 05:30:50;;;;;;;2.83;0.83;;;;;;;;;;6162838;23;20468;-88
2022/02/20 05:34:02;;;;;;;7.83;1.20;;;;;;;;;;6179691;23;20157;-87
2022/02/20 05:37:07;;;;;;;2.40;0.80;;;;;;;;;;6165238;23;20557;-88
2022/02/20 05:40:20;;;;;;;3.63;1.00;;;;;;;;;;6176689;23;20153;-88
2022/02/20 05:43:32;;;;;;;2.77;0.90;;;;;;;;;;6209825;23;20503;-87
2022/02/20 05:46:36;;;;;;;4.50;1.10;;;;;;;;;;6175420;23;20156;-87
2022/02/20 05:49:44;;;;;;;1.83;0.83;;;;;;;;;;6192820;23;20184;-87
2022/02/20 05:52:48;;;;;;;1.17;0.87;;;;;;;;;;6192196;23;20152;-87
2022/02/20 05:55:54;;;;;;;2.17;0.80;;;;;;;;;;6209662;23;20156;-87
2022/02/20 05:59:01;;;;;;;2.97;1.03;;;;;;;;;;6165822;23;20660;-87
2022/02/20 06:02:07;;;;;;;3.53;0.83;;;;;;;;;;6181458;23;20172;-87
2022/02/20 06:05:12;;;;;;;8.37;1.20;;;;;;;;;;6192445;23;20156;-87
2022/02/20 06:08:30;;;;;;;2.20;0.93;;;;;;;;;;6170134;23;20193;-88
2022/02/20 06:11:45;;;;;;;1.33;0.80;;;;;;;;;;6177078;23;20156;-88
2022/02/20 06:15:08;;;;;;;1.80;0.70;;;;;;;;;;6192149;23;20451;-87
2022/02/20 06:18:47;;;;;;;3.27;0.90;;;;;;;;;;6173901;23;20188;-85
2022/02/20 06:22:09;;;;;;;3.87;1.37;;;;;;;;;;6196155;23;20153;-85
2022/02/20 06:25:19;;;;;;;3.57;1.17;;;;;;;;;;6176443;23;20589;-85
2022/02/20 06:28:30;;;;;;;3.20;0.93;;;;;;;;;;6186129;23;20652;-86
2022/02/20 06:31:34;;;;;;;3.57;1.00;;;;;;;;;;6174867;23;21012;-85
2022/02/20 06:34:38;;;;;;;2.20;1.17;;;;;;;;;;6192361;23;20463;-87
2022/02/20 06:37:43;;;;;;;5.20;2.07;;;;;;;;;;6170573;23;20591;-87
2022/02/20 06:40:47;;;;;;;5.00;1.77;;;;;;;;;;6191753;23;20153;-87
2022/02/20 06:43:55;;;;;;;3.10;0.93;;;;;;;;;;6208691;23;20507;-87
2022/02/20 06:47:18;;;;;;;2.90;1.20;;;;;;;;;;6176285;23;20192;-87
2022/02/20 06:50:40;;;;;;;3.17;1.07;;;;;;;;;;6208831;23;20184;-87
2022/02/20 06:53:56;;;;;;;4.00;0.90;;;;;;;;;;6194059;23;20156;-86
2022/02/20 06:57:17;;;;;;;5.50;1.33;;;;;;;;;;6206372;23;20653;-86
2022/02/20 07:00:21;;;;;;;3.50;0.90;;;;;;;;;;6198314;23;20168;-86
2022/02/20 07:03:25;;;;;;;3.97;1.00;;;;;;;;;;6191552;23;20152;-87
2022/02/20 07:06:29;;;;;;;3.80;1.40;;;;;;;;;;6191489;23;20152;-87
2022/02/20 07:09:33;;;;;;;3.07;1.10;;;;;;;;;;6191480;23;20188;-87
2022/02/20 07:12:37;;;;;;;3.87;1.20;;;;;;;;;;6191495;23;20153;-87
2022/02/20 07:15:42;;;;;;;4.30;0.87;;;;;;;;;;6181349;23;20168;-87
2022/02/20 07:18:46;;;;;;;3.97;1.00;;;;;;;;;;6199657;23;20191;-86
2022/02/20 07:21:50;;;;;;;3.93;1.00;;;;;;;;;;6191278;23;20152;-86
2022/02/20 07:24:54;;;;;;;5.83;1.30;;;;;;;;;;6191223;23;20598;-87
2022/02/20 07:27:58;;;;;;;2.60;1.17;;;;;;;;;;6186454;23;20184;-87
2022/02/20 07:31:03;;;;;;;1.57;0.93;;;;;;;;;;6208550;23;20180;-86
2022/02/20 07:34:07;;;;;;;2.67;1.00;;;;;;;;;;6198434;23;20172;-90
2022/02/20 07:37:11;;;;;;;2.13;1.00;;;;;;;;;;6188837;23;20661;-86
2022/02/20 07:40:16;;;;;;;3.60;1.13;;;;;;;;;;6191202;23;20148;-87
2022/02/20 07:43:20;;;;;;;4.47;1.00;;;;;;;;;;6174638;23;20156;-86
2022/02/20 07:46:24;;;;;;;3.27;1.10;;;;;;;;;;6190888;23;20160;-87
2022/02/20 07:49:29;;;;;;;3.67;1.00;;;;;;;;;;6190867;23;20180;-87
2022/02/20 07:52:33;;;;;;;2.63;1.00;;;;;;;;;;6208221;23;20156;-87
2022/02/20 07:55:38;;;;;;;3.23;0.93;;;;;;;;;;6191015;23;20152;-87
2022/02/20 07:58:43;;;;;;;1.77;0.87;;;;;;;;;;6182890;23;20192;-87
2022/02/20 08:01:48;;;;;;;2.40;1.10;;;;;;;;;;6190933;23;20152;-87
2022/02/20 08:04:52;;;;;;;3.73;0.77;;;;;;;;;;6190914;23;20601;-87
2022/02/20 08:07:56;;;;;;;3.00;1.20;;;;;;;;;;6185727;23;20188;-86
2022/02/20 08:11:01;;;;;;;2.67;1.00;;;;;;;;;;6190934;23;20180;-87
2022/02/20 08:14:05;;;;;;;3.63;1.40;;;;;;;;;;6174063;23;20152;-86
2022/02/20 08:17:10;;;;;;;2.40;1.20;;;;;;;;;;6172270;23;20192;-86
2022/02/20 08:20:16;;;;;;;1.90;0.97;;;;;;;;;;6191201;23;20153;-86
2022/02/20 08:23:20;;;;;;;4.47;0.90;;;;;;;;;;6191790;23;20156;-86
2022/02/20 08:26:24;;;;;;;4.07;1.03;;;;;;;;;;6208842;23;20160;-86
2022/02/20 08:29:28;;;;;;;2.67;0.97;;;;;;;;;;6191971;23;20156;-86
2022/02/20 08:32:33;;;;;;;2.20;0.87;;;;;;;;;;6175059;23;20451;-85
2022/02/20 08:35:37;;;;;;;4.53;1.10;;;;;;;;;;6209445;23;20156;-88
2022/02/20 08:38:41;;;;;;;3.57;1.00;;;;;;;;;;6172557;23;20200;-85
2022/02/20 08:41:45;;;;;;;2.63;0.80;;;;;;;;;;6178978;23;20153;-82
2022/02/20 08:44:49;;;;;;;4.00;1.03;;;;;;;;;;6179117;23;20156;-83
2022/02/20 08:47:54;;;;;;;2.20;1.00;;;;;;;;;;6174403;23;20188;-82
2022/02/20 08:50:58;;;;;;;3.47;1.27;;;;;;;;;;6185832;23;20196;-83
2022/02/20 08:54:02;;;;;;;2.10;0.90;;;;;;;;;;6168507;23;20168;-87
2022/02/20 08:57:07;;;;;;;2.43;0.83;;;;;;;;;;6168051;23;20197;-88
2022/02/20 09:00:13;;;;;;;3.60;1.00;;;;;;;;;;6162911;23;20153;-88
2022/02/20 09:03:17;;;;;;;2.67;0.87;;;;;;;;;;6197480;23;20157;-88
2022/02/20 09:06:22;;;;;;;2.10;0.80;;;;;;;;;;6180025;23;20460;-89
2022/02/20 09:09:26;;;;;;;3.43;0.67;;;;;;;;;;6179607;23;20152;-89
2022/02/20 09:12:31;;;;;;;4.07;1.10;;;;;;;;;;6196650;23;20152;-89
2022/02/20 09:15:35;;;;;;;3.53;0.90;;;;;;;;;;6179686;23;20160;-89
2022/02/20 09:18:39;;;;;;;1.40;0.67;;;;;;;;;;6171533;23;20192;-89
2022/02/20 09:21:44;;;;;;;2.13;0.90;;;;;;;;;;6197098;23;20735;-89
2022/02/20 09:24:49;;;;;;;1.67;0.77;;;;;;;;;;6152983;23;20172;-88
2022/02/20 09:27:53;;;;;;;3.47;0.90;;;;;;;;;;6174876;23;20503;-89
2022/02/20 09:30:57;;;;;;;2.80;1.90;;;;;;;;;;6180083;23;20184;-89
2022/02/20 09:34:01;;;;;;;5.27;2.70;;;;;;;;;;6196665;23;20152;-89
2022/02/20 09:37:05;;;;;;;15.13;8.20;;;;;;;;;;6164753;23;20156;-89
2022/02/20 09:40:10;;;;;;;29.37;15.90;;;;;;;;;;6209436;23;20152;-88
2022/02/20 09:43:15;;;;;;;9.00;4.33;;;;;;;;;;6192100;23;20498;-87
2022/02/20 09:46:21;;;;;;;5.60;2.43;;;;;;;;;;6192491;23;20152;-87
2022/02/20 09:49:27;;;;;;;39.83;19.10;;;;;;;;;;6165188;23;20171;-88
2022/02/20 09:52:31;;;;;;;5.53;2.73;;;;;;;;;;6191981;23;20157;-88
2022/02/20 09:55:35;;;;;;;111.10;66.40;;;;;;;;;;6192066;23;20152;-87
2022/02/20 09:58:40;;;;;;;7.87;5.73;;;;;;;;;;6201040;23;20198;-88
2022/02/20 10:02:08;;;;;;;10.73;8.50;;;;;;;;;;6133913;23;20208;-88
2022/02/20 10:05:18;;;;;;;7.40;5.20;;;;;;;;;;6191701;23;20152;-88
2022/02/20 10:08:22;;;;;;;3.97;1.90;;;;;;;;;;6185326;23;20192;-87
2022/02/20 10:11:29;;;;;;;2.20;1.00;;;;;;;;;;6191800;23;20176;-88
2022/02/20 10:14:33;;;;;;;6.03;3.33;;;;;;;;;;6175152;23;20156;-87
2022/02/20 10:17:37;;;;;;;1.47;0.90;;;;;;;;;;6187722;23;20506;-90
2022/02/20 10:21:02;;;;;;;2.77;1.30;;;;;;;;;;6209142;23;20145;-88
2022/02/20 10:24:25;;;;;;;2.90;2.20;;;;;;;;;;6208893;23;20157;-88
2022/02/20 10:27:53;;;;;;;1.47;0.90;;;;;;;;;;6190719;23;20506;-88
2022/02/20 10:31:11;;;;;;;4.03;1.60;;;;;;;;;;6192013;23;20184;-89
2022/02/20 10:34:19;;;;;;;4.30;1.10;;;;;;;;;;6165096;23;20172;-90
2022/02/20 10:37:32;;;;;;;4.77;1.20;;;;;;;;;;6181693;23;20187;-89
2022/02/20 10:40:37;;;;;;;1.67;0.70;;;;;;;;;;6192137;23;20148;-92
2022/02/20 10:43:42;;;;;;;2.80;0.90;;;;;;;;;;6164580;23;20168;-90
2022/02/20 10:46:46;;;;;;;1.83;1.03;;;;;;;;;;6181432;23;20172;-88
2022/02/20 10:49:51;;;;;;;2.90;1.20;;;;;;;;;;6191575;23;20605;-88
2022/02/20 10:53:19;;;;;;;2.80;1.20;;;;;;;;;;6190480;23;20471;-89
2022/02/20 10:56:38;;;;;;;3.80;2.43;;;;;;;;;;6174505;23;20156;-88
2022/02/20 10:59:49;;;;;;;8.53;7.70;;;;;;;;;;6174984;23;20152;-89
2022/02/20 11:03:08;;;;;;;14.77;4.30;;;;;;;;;;6208714;23;20153;-91
2022/02/20 11:06:12;;;;;;;3.93;2.03;;;;;;;;;;6191451;23;20164;-90
2022/02/20 11:09:17;;;;;;;3.20;0.90;;;;;;;;;;6191458;23;20152;-90
2022/02/20 11:12:23;;;;;;;6.27;1.30;;;;;;;;;;6208161;23;20184;-90
2022/02/20 11:15:28;;;;;;;2.47;0.70;;;;;;;;;;6191503;23;20148;-89
2022/02/20 11:18:36;;;;;;;3.13;0.97;;;;;;;;;;6183973;23;20184;-88
2022/02/20 11:21:43;;;;;;;2.00;0.93;;;;;;;;;;6181989;23;20609;-89
2022/02/20 11:24:49;;;;;;;2.50;0.70;;;;;;;;;;6181249;23;20482;-90
2022/02/20 11:27:57;;;;;;;2.40;0.80;;;;;;;;;;6181566;23;20188;-89
2022/02/20 11:31:01;;;;;;;2.43;1.00;;;;;;;;;;6175027;23;20180;-89
2022/02/20 11:34:07;;;;;;;2.53;0.90;;;;;;;;;;6193478;23;20156;-91
2022/02/20 11:37:13;;;;;;;0.97;0.70;;;;;;;;;;6174638;23;20200;-90
2022/02/20 11:40:20;;;;;;;1.67;0.90;;;;;;;;;;6176873;23;20160;-88
2022/02/20 11:43:45;;;;;;;1.47;0.60;;;;;;;;;;6193674;23;20597;-89
2022/02/20 11:46:52;;;;;;;2.40;0.80;;;;;;;;;;6193377;23;20148;-89
2022/02/20 11:50:16;;;;;;;1.13;0.70;;;;;;;;;;6193834;23;20152;-89
2022/02/20 11:53:27;;;;;;;4.90;0.80;;;;;;;;;;6194229;23;20194;-88
2022/02/20 11:56:31;;;;;;;1.80;0.70;;;;;;;;;;6177074;23;20152;-90
2022/02/20 11:59:36;;;;;;;2.57;0.80;;;;;;;;;;6193634;23;20156;-89
2022/02/20 12:03:02;;;;;;;3.33;0.70;;;;;;;;;;6193432;23;20152;-90
2022/02/20 12:06:09;;;;;;;2.50;0.50;;;;;;;;;;6176727;23;20152;-90
2022/02/20 12:09:24;;;;;;;2.40;0.50;;;;;;;;;;6194472;23;20149;-89
2022/02/20 12:12:33;;;;;;;2.57;0.87;;;;;;;;;;6167325;23;20641;-89
2022/02/20 12:15:44;;;;;;;1.70;0.73;;;;;;;;;;6195286;23;20458;-89
2022/02/20 12:19:20;;;;;;;0.77;0.50;;;;;;;;;;6182748;23;20188;-88
2022/02/20 12:22:25;;;;;;;1.13;0.60;;;;;;;;;;6173987;23;20148;-88
2022/02/20 12:25:50;;;;;;;2.37;0.60;;;;;;;;;;6186480;23;20601;-87
2022/02/20 12:29:10;;;;;;;0.87;0.70;;;;;;;;;;6182026;23;20192;-87
2022/02/20 12:32:30;;;;;;;1.77;0.70;;;;;;;;;;6192032;23;20180;-87
2022/02/20 12:35:34;;;;;;;0.60;0.50;;;;;;;;;;6209774;23;20152;-88
2022/02/20 12:38:49;;;;;;;0.90;0.60;;;;;;;;;;6153181;23;20196;-88
2022/02/20 12:41:53;;;;;;;2.07;0.80;;;;;;;;;;6196946;23;20149;-88
2022/02/20 12:45:05;;;;;;;1.47;0.63;;;;;;;;;;6196735;23;20157;-89
2022/02/20 12:48:13;;;;;;;1.77;0.77;;;;;;;;;;6173862;23;20192;-88
2022/02/20 12:51:17;;;;;;;2.37;0.63;;;;;;;;;;6169747;23;20196;-88
2022/02/20 12:54:29;;;;;;;1.17;0.63;;;;;;;;;;6181585;23;20152;-89
2022/02/20 12:57:36;;;;;;;1.30;0.60;;;;;;;;;;6153049;23;20503;-88
2022/02/20 13:00:43;;;;;;;4.10;0.70;;;;;;;;;;6179281;23;20153;-88
2022/02/20 13:03:49;;;;;;;1.67;0.70;;;;;;;;;;6161365;23;20156;-87
2022/02/20 13:06:59;;;;;;;1.23;0.50;;;;;;;;;;6161170;23;20479;-87
2022/02/20 13:10:04;;;;;;;1.97;0.63;;;;;;;;;;6180182;23;20157;-87
2022/02/20 13:13:12;;;;;;;2.63;1.00;;;;;;;;;;6162799;23;20598;-87
2022/02/20 13:16:17;;;;;;;0.97;0.50;;;;;;;;;;6179975;23;20610;-88
2022/02/20 13:19:39;;;;;;;1.13;0.40;;;;;;;;;;6179701;23;20157;-88
2022/02/20 13:22:43;;;;;;;3.80;0.70;;;;;;;;;;6163008;23;20146;-87
2022/02/20 13:25:50;;;;;;;7.37;3.50;;;;;;;;;;6179688;23;20153;-88
2022/02/20 13:28:56;;;;;;;3.13;1.90;;;;;;;;;;6169795;23;20193;-87
2022/02/20 13:32:00;;;;;;;1.07;0.70;;;;;;;;;;6179364;23;20185;-88
2022/02/20 13:35:05;;;;;;;4.03;0.53;;;;;;;;;;6179783;23;20463;-87
2022/02/20 13:38:12;;;;;;;2.93;2.17;;;;;;;;;;6173314;23;20201;-88
2022/02/20 13:41:19;;;;;;;1.53;0.90;;;;;;;;;;6162566;23;20157;-85
2022/02/20 13:44:25;;;;;;;4.20;3.43;;;;;;;;;;6161380;23;20598;-86
2022/02/20 13:47:30;;;;;;;1.73;1.40;;;;;;;;;;6151246;23;20188;-86
2022/02/20 13:50:34;;;;;;;2.00;0.70;;;;;;;;;;6162304;23;20152;-86
2022/02/20 13:53:46;;;;;;;2.57;1.33;;;;;;;;;;6179149;23;20154;-89
2022/02/20 13:56:58;;;;;;;1.10;0.80;;;;;;;;;;6162276;23;20157;-89
2022/02/20 14:00:11;;;;;;;0.93;0.70;;;;;;;;;;6180564;23;20157;-85
2022/02/20 14:03:18;;;;;;;0.73;0.60;;;;;;;;;;6198414;23;20149;-85
2022/02/20 14:06:22;;;;;;;2.20;0.70;;;;;;;;;;6181366;23;20157;-85
2022/02/20 14:09:29;;;;;;;2.13;0.83;;;;;;;;;;6203309;23;20161;-83
2022/02/20 14:12:39;;;;;;;1.00;0.70;;;;;;;;;;6185914;23;20176;-83
2022/02/20 14:15:55;;;;;;;1.73;0.70;;;;;;;;;;6167993;23;20149;-83
2022/02/20 14:18:59;;;;;;;0.80;0.60;;;;;;;;;;6173944;23;20188;-84
2022/02/20 14:22:04;;;;;;;3.70;1.20;;;;;;;;;;6164312;23;20184;-81
2022/02/20 14:25:14;;;;;;;1.10;0.60;;;;;;;;;;6181848;23;20149;-84
2022/02/20 14:28:24;;;;;;;0.50;0.43;;;;;;;;;;6171082;23;20657;-84
2022/02/20 14:31:31;;;;;;;2.03;1.17;;;;;;;;;;6171481;23;20193;-85
2022/02/20 14:34:42;;;;;;;4.57;2.00;;;;;;;;;;6153303;23;20467;-85
2022/02/20 14:37:47;;;;;;;1.57;0.70;;;;;;;;;;6187110;23;20203;-86
2022/02/20 14:40:52;;;;;;;1.87;1.07;;;;;;;;;;6192316;23;20152;-85
2022/02/20 14:43:56;;;;;;;1.80;1.00;;;;;;;;;;6226428;23;20153;-86
2022/02/20 14:47:00;;;;;;;0.87;0.60;;;;;;;;;;6174235;23;20597;-85
2022/02/20 14:50:06;;;;;;;2.57;1.27;;;;;;;;;;6192205;23;20148;-85
2022/02/20 14:53:10;;;;;;;1.30;1.20;;;;;;;;;;6209745;23;20636;-86
2022/02/20 14:56:14;;;;;;;1.90;1.20;;;;;;;;;;6191273;23;20156;-86
2022/02/20 14:59:18;;;;;;;2.20;1.47;;;;;;;;;;6174435;23;20156;-86
2022/02/20 15:02:24;;;;;;;1.70;1.00;;;;;;;;;;6165021;23;20613;-86
2022/02/20 15:05:28;;;;;;;1.93;1.10;;;;;;;;;;6192347;23;20585;-86
2022/02/20 15:08:32;;;;;;;1.00;0.80;;;;;;;;;;6184207;23;20187;-86
2022/02/20 15:11:41;;;;;;;2.83;0.70;;;;;;;;;;6192038;23;20180;-86
2022/02/20 15:14:46;;;;;;;2.17;0.50;;;;;;;;;;6209457;23;20152;-85
2022/02/20 15:17:50;;;;;;;1.20;0.60;;;;;;;;;;6199080;23;20648;-86
2022/02/20 15:20:54;;;;;;;0.57;0.40;;;;;;;;;;6164893;23;20172;-86
2022/02/20 15:23:58;;;;;;;2.57;1.13;;;;;;;;;;6182137;23;20478;-86
2022/02/20 15:27:04;;;;;;;13.23;5.47;;;;;;;;;;6190933;23;20467;-86
2022/02/20 15:30:09;;;;;;;16.10;5.47;;;;;;;;;;6181428;23;20675;-86
2022/02/20 15:33:13;;;;;;;37.73;11.80;;;;;;;;;;6217153;23;20506;-86
2022/02/20 15:36:17;;;;;;;29.93;8.30;;;;;;;;;;6181462;23;20716;-86
2022/02/20 15:39:21;;;;;;;9.53;3.53;;;;;;;;;;6178720;23;20153;-86
2022/02/20 15:42:26;;;;;;;1.87;1.00;;;;;;;;;;6161890;23;20153;-85
2022/02/20 15:45:29;;;;;;;1.10;0.60;;;;;;;;;;6161787;23;20152;-84
2022/02/20 15:48:34;;;;;;;1.03;0.70;;;;;;;;;;6154850;23;20188;-84
2022/02/20 15:51:37;;;;;;;0.33;0.30;;;;;;;;;;6162679;23;20157;-85
2022/02/20 15:54:43;;;;;;;0.93;0.57;;;;;;;;;;6163271;23;20153;-85
2022/02/20 15:57:47;;;;;;;3.13;0.60;;;;;;;;;;6158295;23;20188;-86
2022/02/20 16:00:51;;;;;;;1.13;0.70;;;;;;;;;;6163058;23;20157;-85
2022/02/20 16:03:55;;;;;;;1.80;0.70;;;;;;;;;;6153253;23;20460;-81
2022/02/20 16:07:00;;;;;;;1.40;0.50;;;;;;;;;;6178981;23;20177;-84
2022/02/20 16:10:05;;;;;;;1.53;0.50;;;;;;;;;;6166614;23;20149;-86
2022/02/20 16:13:09;;;;;;;1.47;0.50;;;;;;;;;;6163619;23;20184;-84
2022/02/20 16:16:13;;;;;;;4.30;0.47;;;;;;;;;;6161453;23;20156;-86
2022/02/20 16:19:17;;;;;;;1.00;0.60;;;;;;;;;;6145157;23;20153;-86
2022/02/20 16:22:24;;;;;;;1.83;1.20;;;;;;;;;;6161708;23;20591;-86
2022/02/20 16:25:28;;;;;;;2.23;1.17;;;;;;;;;;6161331;23;20156;-85
2022/02/20 16:28:35;;;;;;;0.50;0.50;;;;;;;;;;6150921;23;20188;-86
2022/02/20 16:31:43;;;;;;;2.60;1.10;;;;;;;;;;6151175;23;20172;-89
2022/02/20 16:34:47;;;;;;;1.43;0.70;;;;;;;;;;6177689;23;20161;-88
2022/02/20 16:37:52;;;;;;;1.17;0.50;;;;;;;;;;6151903;23;20216;-82
2022/02/20 16:40:55;;;;;;;0.93;0.40;;;;;;;;;;6190151;23;20596;-83
2022/02/20 16:43:59;;;;;;;1.23;0.50;;;;;;;;;;6190605;23;20156;-83
2022/02/20 16:47:04;;;;;;;0.60;0.60;;;;;;;;;;6190923;23;20152;-87
2022/02/20 16:50:09;;;;;;;4.77;1.87;;;;;;;;;;6160664;23;20598;-86
2022/02/20 16:53:15;;;;;;;9.03;3.67;;;;;;;;;;6143697;23;20180;-86
2022/02/20 16:56:18;;;;;;;2.60;1.70;;;;;;;;;;6160173;23;20606;-86
2022/02/20 16:59:23;;;;;;;2.50;1.60;;;;;;;;;;6151632;23;20292;-87
2022/02/20 17:02:27;;;;;;;1.00;0.90;;;;;;;;;;6143866;23;20153;-87
2022/02/20 17:05:32;;;;;;;3.53;1.00;;;;;;;;;;6160922;23;20161;-86
2022/02/20 17:08:36;;;;;;;1.47;0.80;;;;;;;;;;6137913;23;20188;-86
2022/02/20 17:11:40;;;;;;;0.70;0.70;;;;;;;;;;6143750;23;20467;-86
2022/02/20 17:14:44;;;;;;;1.10;0.60;;;;;;;;;;6160611;23;20157;-87
2022/02/20 17:17:48;;;;;;;0.83;0.80;;;;;;;;;;6157413;23;20193;-87
2022/02/20 17:20:52;;;;;;;0.70;0.60;;;;;;;;;;6162344;23;20153;-87
2022/02/20 17:24:00;;;;;;;0.90;0.60;;;;;;;;;;6163104;23;20452;-87
2022/02/20 17:27:04;;;;;;;1.63;0.60;;;;;;;;;;6152623;23;20173;-88
2022/02/20 17:30:09;;;;;;;3.33;0.93;;;;;;;;;;6162105;23;20157;-87
2022/02/20 17:33:13;;;;;;;1.57;0.70;;;;;;;;;;6162530;23;20181;-87
2022/02/20 17:36:17;;;;;;;4.90;3.87;;;;;;;;;;6162423;23;20475;-87
2022/02/20 17:39:23;;;;;;;2.30;2.10;;;;;;;;;;6169382;23;20669;-87
2022/02/20 17:42:28;;;;;;;4.60;3.10;;;;;;;;;;6152159;23;20165;-87
2022/02/20 17:45:33;;;;;;;3.03;1.70;;;;;;;;;;6182946;23;20153;-83
2022/02/20 17:48:37;;;;;;;3.97;2.83;;;;;;;;;;6158870;23;20188;-81
2022/02/20 17:51:41;;;;;;;4.70;4.30;;;;;;;;;;6172476;23;20173;-82
2022/02/20 17:54:45;;;;;;;3.87;2.33;;;;;;;;;;6198681;23;20157;-81
2022/02/20 17:57:50;;;;;;;4.57;2.97;;;;;;;;;;6177876;23;20188;-81
2022/02/20 18:00:54;;;;;;;2.73;2.47;;;;;;;;;;6163242;23;20157;-81
2022/02/20 18:03:58;;;;;;;3.33;2.30;;;;;;;;;;6145830;23;20153;-81
2022/02/20 18:07:04;;;;;;;1.63;0.80;;;;;;;;;;6152589;23;20496;-81
2022/02/20 18:10:10;;;;;;;2.03;1.20;;;;;;;;;;6162751;23;20590;-82
2022/02/20 18:13:14;;;;;;;1.33;0.50;;;;;;;;;;6165468;23;20181;-83
2022/02/20 18:16:19;;;;;;;0.90;0.53;;;;;;;;;;6181596;23;20153;-83
2022/02/20 18:19:23;;;;;;;0.97;0.60;;;;;;;;;;6188030;23;20192;-85
2022/02/20 18:22:27;;;;;;;7.10;1.43;;;;;;;;;;6147363;23;20153;-82
2022/02/20 18:25:33;;;;;;;0.90;0.67;;;;;;;;;;6135558;23;20479;-82
2022/02/20 18:28:38;;;;;;;0.87;0.53;;;;;;;;;;6140084;23;20499;-84
2022/02/20 18:31:45;;;;;;;4.47;0.80;;;;;;;;;;6153529;23;20176;-84
2022/02/20 18:34:50;;;;;;;0.70;0.53;;;;;;;;;;6170706;23;20482;-84
2022/02/20 18:37:54;;;;;;;0.80;0.60;;;;;;;;;;6143260;23;20196;-86
2022/02/20 18:40:59;;;;;;;0.60;0.60;;;;;;;;;;6179552;23;20157;-86
2022/02/20 18:44:04;;;;;;;0.63;0.50;;;;;;;;;;6146439;23;20149;-86